Time;durP1;ratioP1;P1;durP2;ratioP2;P2;SDS_P1;SDS_P2;PMS_P1;PMS_P2;Temp;Humidity;BMP_temperature;BMP_pressure;BME280_temperature;BME280_humidity;BME280_pressure;Samples;Min_cycle;Max_cycle;Signal;HPM_P1;HPM_P2
2022/01/08 00:02:10;;;;;;;;;;;0.90;99.90;;;;;;5013603;28;19917;-80
2022/01/08 00:04:36;;;;;;;;;;;0.90;99.90;;;;;;5031410;28;19917;-80
2022/01/08 00:07:01;;;;;;;;;;;1.00;99.90;;;;;;5030355;28;20288;-80
2022/01/08 00:09:27;;;;;;;;;;;1.00;99.90;;;;;;4993246;28;19917;-80
2022/01/08 00:11:52;;;;;;;;;;;0.90;99.90;;;;;;5011414;28;19984;-80
2022/01/08 00:14:21;;;;;;;;;;;0.90;99.90;;;;;;5029086;28;19924;-80
2022/01/08 00:16:47;;;;;;;;;;;0.90;99.90;;;;;;5012711;28;20323;-80
2022/01/08 00:19:12;;;;;;;;;;;0.90;99.90;;;;;;5029022;28;19927;-80
2022/01/08 00:21:38;;;;;;;;;;;0.90;99.90;;;;;;4995624;28;19917;-80
2022/01/08 00:24:04;;;;;;;;;;;0.90;99.90;;;;;;4995921;28;19917;-80
2022/01/08 00:26:29;;;;;;;;;;;0.90;99.90;;;;;;5030616;28;20276;-80
2022/01/08 00:28:55;;;;;;;;;;;0.90;99.90;;;;;;5012920;28;19913;-80
2022/01/08 00:31:21;;;;;;;;;;;0.90;99.90;;;;;;5026945;28;19917;-80
2022/01/08 00:33:47;;;;;;;;;;;0.90;99.90;;;;;;5004311;28;19917;-80
2022/01/08 00:36:13;;;;;;;;;;;0.80;99.90;;;;;;5030263;28;19924;-80
2022/01/08 00:38:38;;;;;;;;;;;0.80;99.90;;;;;;5012794;28;20287;-80
2022/01/08 00:41:04;;;;;;;;;;;0.80;99.90;;;;;;5029606;28;20379;-79
2022/01/08 00:43:30;;;;;;;;;;;0.80;99.90;;;;;;5015638;28;19960;-80
2022/01/08 00:45:55;;;;;;;;;;;0.80;99.90;;;;;;5016781;28;20434;-80
2022/01/08 00:48:21;;;;;;;;;;;0.80;99.90;;;;;;5030271;28;19925;-80
2022/01/08 00:50:47;;;;;;;;;;;0.80;99.90;;;;;;5013603;28;19964;-80
2022/01/08 00:53:12;;;;;;;;;;;0.80;99.90;;;;;;5025951;28;19917;-80
2022/01/08 00:55:38;;;;;;;;;;;0.80;99.90;;;;;;5033337;28;19921;-80
2022/01/08 00:58:03;;;;;;;;;;;0.80;99.90;;;;;;5013813;28;19914;-80
2022/01/08 01:00:29;;;;;;;;;;;0.80;99.90;;;;;;5012984;28;19961;-80
2022/01/08 01:02:55;;;;;;;;;;;0.80;99.90;;;;;;4997153;28;19917;-80
2022/01/08 01:05:21;;;;;;;;;;;0.80;99.90;;;;;;5013266;28;20416;-80
2022/01/08 01:07:47;;;;;;;;;;;0.80;99.90;;;;;;5016493;28;19921;-80
2022/01/08 01:10:13;;;;;;;;;;;0.80;99.90;;;;;;5000047;28;20398;-80
2022/01/08 01:12:39;;;;;;;;;;;0.90;99.90;;;;;;5031341;28;19920;-80
2022/01/08 01:15:06;;;;;;;;;;;0.80;99.90;;;;;;5017906;28;19952;-80
2022/01/08 01:17:32;;;;;;;;;;;0.80;99.90;;;;;;4996697;28;19968;-80
2022/01/08 01:19:57;;;;;;;;;;;0.80;99.90;;;;;;5003697;28;19909;-80
2022/01/08 01:22:28;;;;;;;;;;;0.80;99.90;;;;;;5026097;28;19922;-80
2022/01/08 01:25:01;;;;;;;;;;;0.80;99.90;;;;;;5013943;28;20004;-80
2022/01/08 01:30:09;;;;;;;;;;;0.80;99.90;;;;;;5033637;28;20362;-80
2022/01/08 01:47:00;;;;;;;;;;;0.90;99.90;;;;;;4996712;28;19913;-80
2022/01/08 01:49:21;;;;;;;;;;;1.10;99.90;;;;;;5012048;28;19921;-80
2022/01/08 01:51:47;;;;;;;;;;;1.20;99.90;;;;;;5025856;28;19921;-80
2022/01/08 01:54:13;;;;;;;;;;;1.20;99.90;;;;;;5031940;28;19913;-79
2022/01/08 01:56:38;;;;;;;;;;;1.20;99.90;;;;;;5032272;28;19913;-80
2022/01/08 01:59:04;;;;;;;;;;;1.20;99.90;;;;;;5013037;28;20031;-80
2022/01/08 02:01:30;;;;;;;;;;;1.20;99.90;;;;;;5013643;28;19964;-80
2022/01/08 02:03:56;;;;;;;;;;;1.10;99.90;;;;;;5015146;28;19913;-80
2022/01/08 02:06:21;;;;;;;;;;;1.10;99.90;;;;;;5033048;28;19917;-80
2022/01/08 02:08:47;;;;;;;;;;;1.20;99.90;;;;;;5031716;28;20383;-80
2022/01/08 02:11:13;;;;;;;;;;;1.20;99.90;;;;;;5012655;28;19971;-80
2022/01/08 02:13:38;;;;;;;;;;;1.30;99.90;;;;;;5013574;28;19918;-80
2022/01/08 02:16:06;;;;;;;;;;;1.30;99.90;;;;;;5013201;28;19917;-80
2022/01/08 02:18:33;;;;;;;;;;;1.20;99.90;;;;;;5023595;28;19913;-80
2022/01/08 02:21:00;;;;;;;;;;;1.20;99.90;;;;;;5015621;28;19952;-80
2022/01/08 02:23:26;;;;;;;;;;;1.20;99.90;;;;;;5020685;28;19972;-80
2022/01/08 02:26:00;;;;;;;;;;;1.20;99.90;;;;;;5015074;28;19928;-80
2022/01/08 02:28:26;;;;;;;;;;;1.20;99.90;;;;;;5014983;28;19917;-80
2022/01/08 02:30:51;;;;;;;;;;;1.10;99.90;;;;;;5019817;28;19920;-80
2022/01/08 02:33:17;;;;;;;;;;;1.10;99.90;;;;;;5015381;28;20299;-80
2022/01/08 02:35:43;;;;;;;;;;;1.10;99.90;;;;;;5011499;28;20031;-80
2022/01/08 02:38:08;;;;;;;;;;;1.10;99.90;;;;;;4998524;28;20311;-80
2022/01/08 02:40:36;;;;;;;;;;;1.10;99.90;;;;;;5014565;28;19928;-79
2022/01/08 02:43:04;;;;;;;;;;;1.10;99.90;;;;;;4995473;28;20024;-80
2022/01/08 02:45:30;;;;;;;;;;;1.20;99.90;;;;;;5011391;28;19925;-80
2022/01/08 02:47:56;;;;;;;;;;;1.20;99.90;;;;;;4995404;28;20010;-80
2022/01/08 02:50:23;;;;;;;;;;;1.20;99.90;;;;;;4994788;28;20000;-80
2022/01/08 02:52:49;;;;;;;;;;;1.20;99.90;;;;;;4995001;28;19922;-80
2022/01/08 02:55:16;;;;;;;;;;;1.20;99.90;;;;;;5012878;28;20391;-80
2022/01/08 02:57:41;;;;;;;;;;;1.20;99.90;;;;;;5012454;28;19921;-80
2022/01/08 03:00:08;;;;;;;;;;;1.20;99.90;;;;;;5010859;28;19917;-80
2022/01/08 03:02:43;;;;;;;;;;;1.10;99.90;;;;;;5012839;28;19917;-80
2022/01/08 03:05:11;;;;;;;;;;;1.10;99.90;;;;;;5010816;28;19918;-80
2022/01/08 03:07:41;;;;;;;;;;;1.00;99.90;;;;;;5017056;28;20015;-80
2022/01/08 03:10:07;;;;;;;;;;;1.00;99.90;;;;;;4997764;28;19921;-79
2022/01/08 03:12:33;;;;;;;;;;;1.00;99.90;;;;;;5031194;28;19917;-80
2022/01/08 03:14:59;;;;;;;;;;;1.00;99.90;;;;;;5022969;28;19920;-80
2022/01/08 03:17:24;;;;;;;;;;;1.10;99.90;;;;;;5010857;28;19917;-80
2022/01/08 03:19:52;;;;;;;;;;;1.00;99.90;;;;;;5010592;28;20008;-80
2022/01/08 03:22:18;;;;;;;;;;;1.00;99.90;;;;;;5010936;28;19929;-80
2022/01/08 03:24:43;;;;;;;;;;;0.90;99.90;;;;;;5011060;28;19914;-80
2022/01/08 03:27:09;;;;;;;;;;;0.90;99.90;;;;;;5027468;28;20063;-80
2022/01/08 03:29:35;;;;;;;;;;;0.90;99.90;;;;;;5030396;28;20414;-80
2022/01/08 03:32:00;;;;;;;;;;;0.90;99.90;;;;;;5030745;28;20320;-80
2022/01/08 03:34:26;;;;;;;;;;;0.80;99.90;;;;;;5032079;28;19921;-80
2022/01/08 03:36:51;;;;;;;;;;;0.90;99.90;;;;;;5019021;28;20445;-79
2022/01/08 03:39:18;;;;;;;;;;;0.90;99.90;;;;;;5015849;28;19924;-80
2022/01/08 03:41:45;;;;;;;;;;;0.90;99.90;;;;;;5031721;28;20401;-80
2022/01/08 03:44:11;;;;;;;;;;;0.90;99.90;;;;;;5030611;28;19917;-79
2022/01/08 03:46:37;;;;;;;;;;;0.90;99.90;;;;;;5030835;28;20358;-80
2022/01/08 03:51:29;;;;;;;;;;;0.90;99.90;;;;;;5010433;28;19921;-80
2022/01/08 03:53:56;;;;;;;;;;;0.80;99.90;;;;;;5024285;28;19913;-80
2022/01/08 03:56:22;;;;;;;;;;;0.80;99.90;;;;;;4996797;28;19920;-80
2022/01/08 03:58:47;;;;;;;;;;;0.80;99.90;;;;;;5010052;28;19983;-80
2022/01/08 04:01:13;;;;;;;;;;;0.80;99.90;;;;;;5010589;28;19917;-80
2022/01/08 04:03:39;;;;;;;;;;;0.80;99.90;;;;;;5011882;28;19922;-80
2022/01/08 04:06:04;;;;;;;;;;;0.80;99.90;;;;;;5009982;28;19924;-79
2022/01/08 04:08:30;;;;;;;;;;;0.80;99.90;;;;;;5013429;28;20046;-80
2022/01/08 04:10:55;;;;;;;;;;;0.80;99.90;;;;;;5013664;28;19917;-80
2022/01/08 04:13:25;;;;;;;;;;;0.80;99.90;;;;;;5014218;28;20009;-80
2022/01/08 04:15:55;;;;;;;;;;;0.80;99.90;;;;;;5009942;28;20451;-79
2022/01/08 04:18:20;;;;;;;;;;;0.90;99.90;;;;;;5023377;28;20414;-80
2022/01/08 04:23:22;;;;;;;;;;;0.90;99.90;;;;;;5013393;28;19921;-80
2022/01/08 04:25:50;;;;;;;;;;;0.90;99.90;;;;;;5030611;28;20375;-80
2022/01/08 04:28:16;;;;;;;;;;;0.90;99.90;;;;;;5030972;28;19913;-80
2022/01/08 04:30:42;;;;;;;;;;;0.90;99.90;;;;;;5030955;28;20567;-80
2022/01/08 04:33:07;;;;;;;;;;;0.90;99.90;;;;;;5013738;28;19940;-80
2022/01/08 04:35:33;;;;;;;;;;;0.90;99.90;;;;;;5013149;28;19963;-80
2022/01/08 04:37:59;;;;;;;;;;;0.90;99.90;;;;;;5013910;28;19967;-80
2022/01/08 04:40:24;;;;;;;;;;;0.90;99.90;;;;;;4996529;28;19960;-80
2022/01/08 04:42:50;;;;;;;;;;;0.90;99.90;;;;;;4997096;28;20078;-80
2022/01/08 04:45:15;;;;;;;;;;;0.90;99.90;;;;;;4997104;28;20342;-80
2022/01/08 04:47:41;;;;;;;;;;;0.80;99.90;;;;;;5010016;28;20308;-80
2022/01/08 04:50:07;;;;;;;;;;;0.80;99.90;;;;;;5012905;28;20012;-80
2022/01/08 04:52:33;;;;;;;;;;;0.80;99.90;;;;;;4997301;28;20383;-80
2022/01/08 04:54:59;;;;;;;;;;;0.80;99.90;;;;;;5031105;28;19924;-80
2022/01/08 04:57:25;;;;;;;;;;;0.70;99.90;;;;;;5029510;28;19918;-80
2022/01/08 04:59:50;;;;;;;;;;;0.70;99.90;;;;;;5030519;28;20371;-81
2022/01/08 05:02:16;;;;;;;;;;;0.70;99.90;;;;;;5013424;28;19918;-80
2022/01/08 05:04:41;;;;;;;;;;;0.70;99.90;;;;;;5029833;28;19918;-80
2022/01/08 05:07:07;;;;;;;;;;;0.60;99.90;;;;;;4996446;28;19967;-80
2022/01/08 05:09:32;;;;;;;;;;;0.70;99.90;;;;;;5012394;28;19975;-80
2022/01/08 05:11:58;;;;;;;;;;;0.60;99.90;;;;;;4996958;28;19960;-80
2022/01/08 05:14:25;;;;;;;;;;;0.60;99.90;;;;;;4996689;28;20024;-80
2022/01/08 05:16:57;;;;;;;;;;;0.60;99.90;;;;;;5012527;28;19913;-81
2022/01/08 05:19:32;;;;;;;;;;;0.60;99.90;;;;;;5012407;28;19917;-80
2022/01/08 05:21:58;;;;;;;;;;;0.50;99.90;;;;;;5013110;28;19959;-80
2022/01/08 05:24:24;;;;;;;;;;;0.50;99.90;;;;;;5024720;28;19925;-80
2022/01/08 05:26:49;;;;;;;;;;;0.50;99.90;;;;;;5012520;28;19925;-79
2022/01/08 05:29:15;;;;;;;;;;;0.50;99.90;;;;;;5013859;28;20392;-80
2022/01/08 05:31:40;;;;;;;;;;;0.50;99.90;;;;;;5023033;28;19917;-80
2022/01/08 05:34:07;;;;;;;;;;;0.50;99.90;;;;;;5034327;28;19921;-80
2022/01/08 05:36:33;;;;;;;;;;;0.40;99.90;;;;;;5014944;28;20392;-80
2022/01/08 05:38:58;;;;;;;;;;;0.40;99.90;;;;;;4979915;28;19925;-81
2022/01/08 05:41:24;;;;;;;;;;;0.40;99.90;;;;;;5013021;28;20324;-81
2022/01/08 05:43:49;;;;;;;;;;;0.40;99.90;;;;;;4996738;28;19918;-80
2022/01/08 05:46:15;;;;;;;;;;;0.40;99.90;;;;;;5012334;28;19956;-80
2022/01/08 05:48:41;;;;;;;;;;;0.50;99.90;;;;;;4996146;28;19920;-80
2022/01/08 05:51:06;;;;;;;;;;;0.50;99.90;;;;;;5020610;28;19960;-80
2022/01/08 05:53:32;;;;;;;;;;;0.50;99.90;;;;;;5016176;28;19917;-80
2022/01/08 05:55:57;;;;;;;;;;;0.50;99.90;;;;;;4995912;28;19945;-80
2022/01/08 05:58:23;;;;;;;;;;;0.50;99.90;;;;;;4999225;28;19917;-80
2022/01/08 06:00:49;;;;;;;;;;;0.50;99.90;;;;;;5033571;28;20015;-80
2022/01/08 06:03:16;;;;;;;;;;;0.50;99.90;;;;;;5020961;28;19921;-80
2022/01/08 06:05:41;;;;;;;;;;;0.50;99.90;;;;;;5015192;28;19917;-80
2022/01/08 06:08:07;;;;;;;;;;;0.50;99.90;;;;;;5033555;28;20380;-80
2022/01/08 06:10:32;;;;;;;;;;;0.50;99.90;;;;;;4998879;28;20379;-80
2022/01/08 06:12:58;;;;;;;;;;;0.50;99.90;;;;;;4999553;28;19925;-80
2022/01/08 06:15:24;;;;;;;;;;;0.50;99.90;;;;;;5011791;28;19917;-80
2022/01/08 06:17:49;;;;;;;;;;;0.50;99.90;;;;;;5012492;28;20460;-80
2022/01/08 06:20:15;;;;;;;;;;;0.50;99.90;;;;;;5011509;28;19913;-80
2022/01/08 06:22:40;;;;;;;;;;;0.50;99.90;;;;;;5012321;28;19924;-80
2022/01/08 06:25:06;;;;;;;;;;;0.50;99.90;;;;;;5013332;28;19920;-79
2022/01/08 06:27:32;;;;;;;;;;;0.50;99.90;;;;;;5014923;28;19929;-81
2022/01/08 06:29:57;;;;;;;;;;;0.50;99.90;;;;;;5000851;28;19917;-80
2022/01/08 06:32:23;;;;;;;;;;;0.50;99.90;;;;;;5015516;28;20286;-80
2022/01/08 06:34:49;;;;;;;;;;;0.50;99.90;;;;;;5033391;28;19913;-80
2022/01/08 06:37:14;;;;;;;;;;;0.50;99.90;;;;;;5014384;28;20012;-80
2022/01/08 06:39:40;;;;;;;;;;;0.50;99.90;;;;;;4975291;28;20303;-80
2022/01/08 06:42:05;;;;;;;;;;;0.50;99.90;;;;;;4983874;28;20000;-79
2022/01/08 06:44:31;;;;;;;;;;;0.50;99.90;;;;;;5014940;28;19918;-79
2022/01/08 06:46:57;;;;;;;;;;;0.50;99.90;;;;;;5020005;28;19975;-79
2022/01/08 06:49:22;;;;;;;;;;;0.50;99.90;;;;;;5014573;28;20392;-79
2022/01/08 06:51:48;;;;;;;;;;;0.40;99.90;;;;;;5032092;28;19963;-79
2022/01/08 06:54:14;;;;;;;;;;;0.40;99.90;;;;;;5015772;28;19925;-78
2022/01/08 06:56:39;;;;;;;;;;;0.40;99.90;;;;;;5015057;28;19913;-78
2022/01/08 06:59:05;;;;;;;;;;;0.40;99.90;;;;;;5014850;28;19917;-78
2022/01/08 07:01:32;;;;;;;;;;;0.30;99.90;;;;;;5032469;28;21941;-79
2022/01/08 07:03:58;;;;;;;;;;;0.30;99.90;;;;;;5015448;28;20022;-79
2022/01/08 07:06:24;;;;;;;;;;;0.30;99.90;;;;;;5031790;28;19921;-79
2022/01/08 07:08:49;;;;;;;;;;;0.30;99.90;;;;;;5032293;28;19909;-79
2022/01/08 07:11:16;;;;;;;;;;;0.30;99.90;;;;;;5015519;28;20401;-79
2022/01/08 07:13:42;;;;;;;;;;;0.30;99.90;;;;;;5033128;28;19913;-79
2022/01/08 07:16:07;;;;;;;;;;;0.20;99.90;;;;;;5032143;28;19920;-79
2022/01/08 07:18:33;;;;;;;;;;;0.30;99.90;;;;;;5031901;28;19921;-79
2022/01/08 07:20:59;;;;;;;;;;;0.30;99.90;;;;;;5031928;28;19917;-79
2022/01/08 07:23:24;;;;;;;;;;;0.30;99.90;;;;;;5026587;28;20283;-79
2022/01/08 07:25:50;;;;;;;;;;;0.30;99.90;;;;;;5014119;28;19983;-79
2022/01/08 07:28:15;;;;;;;;;;;0.30;99.90;;;;;;5032479;28;19948;-78
2022/01/08 07:30:41;;;;;;;;;;;0.30;99.90;;;;;;5013014;28;19917;-78
2022/01/08 07:33:06;;;;;;;;;;;0.30;99.90;;;;;;5031939;28;19921;-78
2022/01/08 07:35:32;;;;;;;;;;;0.30;99.90;;;;;;5022065;28;20004;-79
2022/01/08 07:37:58;;;;;;;;;;;0.30;99.90;;;;;;5024503;28;19917;-79
2022/01/08 07:40:23;;;;;;;;;;;0.30;99.90;;;;;;5031883;28;19921;-78
2022/01/08 07:42:49;;;;;;;;;;;0.30;99.90;;;;;;5014427;28;20376;-79
2022/01/08 07:45:15;;;;;;;;;;;0.30;99.90;;;;;;4998089;28;20376;-78
2022/01/08 07:47:41;;;;;;;;;;;0.30;99.90;;;;;;4996625;28;20007;-78
2022/01/08 07:50:07;;;;;;;;;;;0.40;99.90;;;;;;4997055;28;19960;-78
2022/01/08 07:52:33;;;;;;;;;;;0.30;99.90;;;;;;5029075;28;20516;-78
2022/01/08 07:54:58;;;;;;;;;;;0.30;99.90;;;;;;5013080;28;20024;-78
2022/01/08 07:57:24;;;;;;;;;;;0.30;99.90;;;;;;5026769;28;19963;-79
2022/01/08 07:59:50;;;;;;;;;;;0.40;99.90;;;;;;5030063;28;19920;-78
2022/01/08 08:02:15;;;;;;;;;;;0.30;99.90;;;;;;5010879;28;19924;-79
2022/01/08 08:04:41;;;;;;;;;;;0.40;99.90;;;;;;5009296;28;20029;-79
2022/01/08 08:07:07;;;;;;;;;;;0.40;99.90;;;;;;5029880;28;19932;-78
2022/01/08 08:09:32;;;;;;;;;;;0.40;99.90;;;;;;5030144;28;19921;-78
2022/01/08 08:11:58;;;;;;;;;;;0.40;99.90;;;;;;5030224;28;19917;-78
2022/01/08 08:14:23;;;;;;;;;;;0.40;99.90;;;;;;5026781;28;19921;-78
2022/01/08 08:16:49;;;;;;;;;;;0.40;99.90;;;;;;5013138;28;20395;-79
2022/01/08 08:19:16;;;;;;;;;;;0.40;99.90;;;;;;5012800;28;19918;-78
2022/01/08 08:21:41;;;;;;;;;;;0.50;99.90;;;;;;5013869;28;20012;-79
2022/01/08 08:24:07;;;;;;;;;;;0.50;99.90;;;;;;5011852;28;20357;-79
2022/01/08 08:26:34;;;;;;;;;;;0.50;99.90;;;;;;5011440;28;19921;-79
2022/01/08 08:29:00;;;;;;;;;;;0.50;99.90;;;;;;5013060;28;20287;-79
2022/01/08 08:31:25;;;;;;;;;;;0.60;99.90;;;;;;5013872;28;19914;-79
2022/01/08 08:33:51;;;;;;;;;;;0.60;99.90;;;;;;4997341;28;19913;-79
2022/01/08 08:36:17;;;;;;;;;;;0.60;99.90;;;;;;4996719;28;19925;-79
2022/01/08 08:38:43;;;;;;;;;;;0.60;99.90;;;;;;5012820;28;19913;-79
2022/01/08 08:41:11;;;;;;;;;;;0.60;99.90;;;;;;5016885;28;20340;-79
2022/01/08 08:43:37;;;;;;;;;;;0.70;99.90;;;;;;5029735;28;19921;-80
2022/01/08 08:46:03;;;;;;;;;;;0.60;99.90;;;;;;5011391;28;19917;-78
2022/01/08 08:48:28;;;;;;;;;;;0.60;99.90;;;;;;5017205;28;19917;-79
2022/01/08 08:50:54;;;;;;;;;;;0.60;99.90;;;;;;5011965;28;19920;-79
2022/01/08 08:53:20;;;;;;;;;;;0.60;99.90;;;;;;5030547;28;19960;-80
2022/01/08 08:55:46;;;;;;;;;;;0.60;99.90;;;;;;5012647;28;19920;-79
2022/01/08 08:58:11;;;;;;;;;;;0.60;99.90;;;;;;4993359;28;19913;-79
2022/01/08 09:00:37;;;;;;;;;;;0.60;99.90;;;;;;4995915;28;19917;-80
2022/01/08 09:03:03;;;;;;;;;;;0.60;99.90;;;;;;5012891;28;19976;-79
2022/01/08 09:05:28;;;;;;;;;;;0.60;99.90;;;;;;5012733;28;19917;-80
2022/01/08 09:07:54;;;;;;;;;;;0.70;99.90;;;;;;4997310;28;20383;-80
2022/01/08 09:10:25;;;;;;;;;;;0.70;99.90;;;;;;4996299;28;19925;-79
2022/01/08 09:12:51;;;;;;;;;;;0.70;99.90;;;;;;5023097;28;20277;-80
2022/01/08 09:15:20;;;;;;;;;;;0.80;99.90;;;;;;5016498;28;20020;-80
2022/01/08 09:17:47;;;;;;;;;;;0.80;99.90;;;;;;5000218;28;19913;-79
2022/01/08 09:20:12;;;;;;;;;;;0.80;99.90;;;;;;4996404;28;20008;-80
2022/01/08 09:22:38;;;;;;;;;;;0.80;99.90;;;;;;4980804;28;19949;-80
2022/01/08 09:25:04;;;;;;;;;;;0.80;99.90;;;;;;4980554;28;20024;-80
2022/01/08 09:27:30;;;;;;;;;;;0.80;99.90;;;;;;4999365;28;19932;-79
2022/01/08 09:29:56;;;;;;;;;;;0.80;99.90;;;;;;5012516;28;19913;-80
2022/01/08 09:32:23;;;;;;;;;;;0.90;99.90;;;;;;5012906;28;19928;-81
2022/01/08 09:34:50;;;;;;;;;;;0.90;99.90;;;;;;4999898;28;19940;-80
2022/01/08 09:37:16;;;;;;;;;;;1.00;99.90;;;;;;5033617;28;19972;-80
2022/01/08 09:39:42;;;;;;;;;;;1.00;99.90;;;;;;5015942;28;20397;-80
2022/01/08 09:42:08;;;;;;;;;;;1.00;99.90;;;;;;5000001;28;20008;-80
2022/01/08 09:44:37;;;;;;;;;;;1.10;99.90;;;;;;5034052;28;19996;-80
2022/01/08 09:47:03;;;;;;;;;;;1.10;99.90;;;;;;4983235;28;19964;-78
2022/01/08 09:49:29;;;;;;;;;;;1.10;99.90;;;;;;5030329;28;19921;-79
2022/01/08 09:51:55;;;;;;;;;;;1.20;99.90;;;;;;5011754;28;19936;-78
2022/01/08 09:54:20;;;;;;;;;;;1.30;99.90;;;;;;5012907;28;19921;-80
2022/01/08 09:56:46;;;;;;;;;;;1.30;99.90;;;;;;4994608;28;20000;-80
2022/01/08 09:59:11;;;;;;;;;;;1.30;99.90;;;;;;5013740;28;19925;-80
2022/01/08 10:01:37;;;;;;;;;;;1.30;99.90;;;;;;5015676;28;19921;-78
2022/01/08 10:04:04;;;;;;;;;;;1.30;99.90;;;;;;5015073;28;19963;-80
2022/01/08 10:06:32;;;;;;;;;;;1.30;99.90;;;;;;4990021;28;19968;-80
2022/01/08 10:08:58;;;;;;;;;;;1.20;99.90;;;;;;5028911;28;19922;-80
2022/01/08 10:11:24;;;;;;;;;;;1.20;99.90;;;;;;4996021;28;19914;-78
2022/01/08 10:14:00;;;;;;;;;;;1.20;99.90;;;;;;5014455;28;19914;-82
2022/01/08 10:19:17;;;;;;;;;;;1.20;99.90;;;;;;5017844;28;19920;-78
2022/01/08 10:21:43;;;;;;;;;;;1.30;99.90;;;;;;5009101;28;19940;-79
2022/01/08 10:24:10;;;;;;;;;;;1.20;99.90;;;;;;5011606;28;19921;-80
2022/01/08 10:26:39;;;;;;;;;;;1.30;99.90;;;;;;5010758;28;19920;-80
2022/01/08 10:29:12;;;;;;;;;;;1.20;99.90;;;;;;5001323;28;20007;-79
2022/01/08 10:31:39;;;;;;;;;;;1.30;99.90;;;;;;5012372;28;19917;-78
2022/01/08 10:34:07;;;;;;;;;;;1.30;99.90;;;;;;4994868;28;19917;-79
2022/01/08 10:36:35;;;;;;;;;;;1.30;99.90;;;;;;5003170;28;19955;-78
2022/01/08 10:39:03;;;;;;;;;;;1.30;99.90;;;;;;5009075;28;20012;-79
2022/01/08 10:41:28;;;;;;;;;;;1.40;99.90;;;;;;5009427;28;20406;-79
2022/01/08 10:44:05;;;;;;;;;;;1.40;99.90;;;;;;4995987;28;20015;-78
2022/01/08 10:46:30;;;;;;;;;;;1.40;99.90;;;;;;5023156;28;19921;-79
2022/01/08 10:48:56;;;;;;;;;;;1.40;99.90;;;;;;5019834;28;20714;-79
2022/01/08 10:51:24;;;;;;;;;;;1.40;99.90;;;;;;5026014;28;19921;-79
2022/01/08 10:54:01;;;;;;;;;;;1.40;99.90;;;;;;4991625;28;19917;-79
2022/01/08 10:56:40;;;;;;;;;;;1.40;99.90;;;;;;4974103;28;19987;-80
2022/01/08 10:59:06;;;;;;;;;;;1.40;99.90;;;;;;5016656;28;19917;-79
2022/01/08 11:01:39;;;;;;;;;;;1.50;99.90;;;;;;5013289;28;19939;-80
2022/01/08 11:04:09;;;;;;;;;;;1.50;99.90;;;;;;5030997;28;19920;-79
2022/01/08 11:06:51;;;;;;;;;;;1.50;99.90;;;;;;5005553;28;19921;-80
2022/01/08 11:09:16;;;;;;;;;;;1.50;99.90;;;;;;5001860;28;19924;-80
2022/01/08 11:11:43;;;;;;;;;;;1.50;99.90;;;;;;5030049;28;19917;-80
2022/01/08 11:14:11;;;;;;;;;;;1.60;99.90;;;;;;4999007;28;20293;-80
2022/01/08 11:16:37;;;;;;;;;;;1.60;99.90;;;;;;4993126;28;19917;-80
2022/01/08 11:19:03;;;;;;;;;;;1.60;99.90;;;;;;5013252;28;20368;-80
2022/01/08 11:21:30;;;;;;;;;;;1.60;99.90;;;;;;5013689;28;19917;-80
2022/01/08 11:23:57;;;;;;;;;;;1.70;99.90;;;;;;5014128;28;19917;-79
2022/01/08 11:26:24;;;;;;;;;;;1.70;99.90;;;;;;5009842;28;19924;-79
2022/01/08 11:28:52;;;;;;;;;;;1.80;99.90;;;;;;5010368;28;19917;-78
2022/01/08 11:31:20;;;;;;;;;;;1.80;99.90;;;;;;5010859;28;19921;-81
2022/01/08 11:33:50;;;;;;;;;;;1.80;99.90;;;;;;5013958;28;19913;-79
2022/01/08 11:36:17;;;;;;;;;;;1.80;99.90;;;;;;5013610;28;19923;-80
2022/01/08 11:38:44;;;;;;;;;;;1.70;99.90;;;;;;4996874;28;19968;-79
2022/01/08 11:41:09;;;;;;;;;;;1.70;99.90;;;;;;5030110;28;19923;-81
2022/01/08 11:43:36;;;;;;;;;;;1.60;99.90;;;;;;4997454;28;19917;-80
2022/01/08 11:46:03;;;;;;;;;;;1.60;99.90;;;;;;5001646;28;19925;-80
2022/01/08 11:48:31;;;;;;;;;;;1.60;99.90;;;;;;5022099;28;20299;-80
2022/01/08 11:50:58;;;;;;;;;;;1.60;99.90;;;;;;5013733;28;19917;-81
2022/01/08 11:53:24;;;;;;;;;;;1.60;99.90;;;;;;4997462;28;19936;-81
2022/01/08 11:55:51;;;;;;;;;;;1.70;99.90;;;;;;4982867;28;19913;-80
2022/01/08 11:58:23;;;;;;;;;;;1.70;99.90;;;;;;4990895;28;19952;-79
2022/01/08 12:00:48;;;;;;;;;;;1.70;99.90;;;;;;5006789;28;19943;-79
2022/01/08 12:03:20;;;;;;;;;;;1.70;99.90;;;;;;5025906;28;19917;-78
2022/01/08 12:05:46;;;;;;;;;;;1.70;99.90;;;;;;5026715;28;20283;-80
2022/01/08 12:08:15;;;;;;;;;;;1.70;99.90;;;;;;5011959;28;20003;-82
2022/01/08 12:10:58;;;;;;;;;;;1.70;99.90;;;;;;4991017;28;19928;-82
2022/01/08 12:13:43;;;;;;;;;;;1.70;99.90;;;;;;5006223;28;19929;-80
2022/01/08 12:16:28;;;;;;;;;;;1.70;99.90;;;;;;5029174;28;20437;-82
2022/01/08 12:18:54;;;;;;;;;;;1.60;99.90;;;;;;4993943;28;19919;-84
2022/01/08 12:21:33;;;;;;;;;;;1.60;99.90;;;;;;5010372;28;20004;-83
2022/01/08 12:24:19;;;;;;;;;;;1.60;99.90;;;;;;5009488;28;20287;-84
2022/01/08 12:26:45;;;;;;;;;;;1.60;99.90;;;;;;4997028;28;19976;-85
2022/01/08 12:29:10;;;;;;;;;;;1.70;99.90;;;;;;4995066;28;19913;-83
2022/01/08 12:31:42;;;;;;;;;;;1.70;99.90;;;;;;5012341;28;20451;-83
2022/01/08 12:34:25;;;;;;;;;;;1.70;99.90;;;;;;5012065;28;19920;-82
2022/01/08 12:36:52;;;;;;;;;;;1.80;99.90;;;;;;5010958;28;19913;-85
2022/01/08 12:39:22;;;;;;;;;;;1.70;99.90;;;;;;4997360;28;19913;-83
2022/01/08 12:41:48;;;;;;;;;;;1.70;99.90;;;;;;5016323;28;19913;-82
2022/01/08 12:44:23;;;;;;;;;;;1.70;99.90;;;;;;5015053;28;19928;-85
2022/01/08 12:46:49;;;;;;;;;;;1.60;99.90;;;;;;5010643;28;19933;-83
2022/01/08 12:49:15;;;;;;;;;;;1.60;99.90;;;;;;5013709;28;20376;-83
2022/01/08 12:51:44;;;;;;;;;;;1.50;99.90;;;;;;5012248;28;19928;-83
2022/01/08 12:54:09;;;;;;;;;;;1.40;99.90;;;;;;5007038;28;19924;-82
2022/01/08 12:56:35;;;;;;;;;;;1.40;99.90;;;;;;4992754;28;19909;-82
2022/01/08 12:59:02;;;;;;;;;;;1.30;99.90;;;;;;5003093;28;20296;-81
2022/01/08 13:01:28;;;;;;;;;;;1.30;99.90;;;;;;5013498;28;19936;-81
2022/01/08 13:03:57;;;;;;;;;;;1.30;99.90;;;;;;5011502;28;20396;-80
2022/01/08 13:06:24;;;;;;;;;;;1.30;99.90;;;;;;4991619;28;20732;-83
2022/01/08 13:08:52;;;;;;;;;;;1.30;99.90;;;;;;4996055;28;19920;-84
2022/01/08 13:11:19;;;;;;;;;;;1.30;99.90;;;;;;5029923;28;19982;-81
2022/01/08 13:14:00;;;;;;;;;;;1.30;99.90;;;;;;5029730;28;19956;-83
2022/01/08 13:16:28;;;;;;;;;;;1.30;99.90;;;;;;5003230;28;20028;-83
2022/01/08 13:18:55;;;;;;;;;;;1.20;99.90;;;;;;5026737;28;20528;-83
2022/01/08 13:21:29;;;;;;;;;;;1.30;99.90;;;;;;5015111;28;20399;-83
2022/01/08 13:23:55;;;;;;;;;;;1.30;99.90;;;;;;5006376;28;19921;-79
2022/01/08 13:26:31;;;;;;;;;;;1.30;99.90;;;;;;4979266;28;19929;-83
2022/01/08 13:28:57;;;;;;;;;;;1.30;99.90;;;;;;4979676;28;19917;-83
2022/01/08 13:31:39;;;;;;;;;;;1.30;99.90;;;;;;5013113;28;19963;-82
2022/01/08 13:34:05;;;;;;;;;;;1.30;99.90;;;;;;4996532;28;19917;-82
2022/01/08 13:36:30;;;;;;;;;;;1.20;99.90;;;;;;4996704;28;20344;-79
2022/01/08 13:38:56;;;;;;;;;;;1.20;99.90;;;;;;5010510;28;19928;-80
2022/01/08 13:41:22;;;;;;;;;;;1.20;99.90;;;;;;4993998;28;19920;-81
2022/01/08 13:43:57;;;;;;;;;;;1.20;99.90;;;;;;4991203;28;19948;-82
2022/01/08 13:46:23;;;;;;;;;;;1.30;99.90;;;;;;5017648;28;20592;-82
2022/01/08 13:48:48;;;;;;;;;;;1.30;99.90;;;;;;5011465;28;19917;-81
2022/01/08 13:51:16;;;;;;;;;;;1.30;99.90;;;;;;5013485;28;19914;-80
2022/01/08 13:53:42;;;;;;;;;;;1.30;99.90;;;;;;5012465;28;19913;-82
2022/01/08 13:56:07;;;;;;;;;;;1.20;99.90;;;;;;5012163;28;19917;-82
2022/01/08 13:58:34;;;;;;;;;;;1.20;99.90;;;;;;5012640;28;19921;-81
2022/01/08 14:01:00;;;;;;;;;;;1.20;99.90;;;;;;4992714;28;19972;-83
2022/01/08 14:03:27;;;;;;;;;;;1.20;99.90;;;;;;5006190;28;19917;-81
2022/01/08 14:05:54;;;;;;;;;;;1.20;99.90;;;;;;4995740;28;19964;-82
2022/01/08 14:08:19;;;;;;;;;;;1.10;99.90;;;;;;5009594;28;19913;-82
2022/01/08 14:10:46;;;;;;;;;;;1.10;99.90;;;;;;5010878;28;20288;-80
2022/01/08 14:13:16;;;;;;;;;;;1.10;99.90;;;;;;5022211;28;19921;-81
2022/01/08 14:15:43;;;;;;;;;;;1.00;99.90;;;;;;4995066;28;19917;-82
2022/01/08 14:18:19;;;;;;;;;;;1.10;99.90;;;;;;5009086;28;19928;-80
2022/01/08 14:20:45;;;;;;;;;;;1.00;99.90;;;;;;5011646;28;19917;-79
2022/01/08 14:23:12;;;;;;;;;;;1.00;99.90;;;;;;5007668;28;20619;-82
2022/01/08 14:25:37;;;;;;;;;;;1.00;99.90;;;;;;4977562;28;19922;-81
2022/01/08 14:28:16;;;;;;;;;;;1.00;99.90;;;;;;5010961;28;19928;-82
2022/01/08 14:30:42;;;;;;;;;;;1.00;99.90;;;;;;4990408;28;19924;-82
2022/01/08 14:33:10;;;;;;;;;;;1.00;99.90;;;;;;5010755;28;20476;-80
2022/01/08 14:35:36;;;;;;;;;;;1.00;99.90;;;;;;5017801;28;20008;-79
2022/01/08 14:38:02;;;;;;;;;;;1.00;99.90;;;;;;5011150;28;20001;-80
2022/01/08 14:40:29;;;;;;;;;;;1.00;99.90;;;;;;5010667;28;19928;-80
2022/01/08 14:42:56;;;;;;;;;;;0.90;99.90;;;;;;5012011;28;20339;-80
2022/01/08 14:45:22;;;;;;;;;;;1.00;99.90;;;;;;5005028;28;19925;-81
2022/01/08 14:47:47;;;;;;;;;;;1.00;99.90;;;;;;4992100;28;19917;-82
2022/01/08 14:50:21;;;;;;;;;;;1.00;99.90;;;;;;5012467;28;20386;-81
2022/01/08 14:52:47;;;;;;;;;;;0.90;99.90;;;;;;4994985;28;19928;-82
2022/01/08 14:55:15;;;;;;;;;;;1.00;99.90;;;;;;5016642;28;20327;-82